Time;durP1;ratioP1;P1;durP2;ratioP2;P2;SDS_P1;SDS_P2;PMS_P1;PMS_P2;Temp;Humidity;BMP_temperature;BMP_pressure;BME280_temperature;BME280_humidity;BME280_pressure;Samples;Min_cycle;Max_cycle;Signal;HPM_P1;HPM_P2
2024/01/19 00:00:41;;;;;;;408.48;223.35;;;;;;;-1.10;100.00;97411.22;5007300;28;20064;-58
2024/01/19 00:03:06;;;;;;;522.22;230.38;;;;;;;-1.02;100.00;97420.03;5007611;28;20087;-58
2024/01/19 00:05:32;;;;;;;382.98;221.43;;;;;;;-1.01;100.00;97418.34;5010978;28;20034;-59
2024/01/19 00:07:57;;;;;;;390.95;218.73;;;;;;;-0.95;100.00;97427.06;5009680;28;20053;-60
2024/01/19 00:10:22;;;;;;;420.88;221.27;;;;;;;-0.91;100.00;97422.94;5008923;28;20030;-57
2024/01/19 00:12:48;;;;;;;411.90;220.05;;;;;;;-0.96;100.00;97435.53;5010162;28;20075;-60
2024/01/19 00:15:13;;;;;;;498.52;229.75;;;;;;;-1.05;100.00;97441.22;5007725;28;20021;-58
2024/01/19 00:17:39;;;;;;;479.30;223.02;;;;;;;-1.02;100.00;97439.56;5008078;28;20057;-60
2024/01/19 00:20:08;;;;;;;392.15;220.15;;;;;;;-0.98;100.00;97441.41;5006772;28;20588;-59
2024/01/19 00:22:34;;;;;;;384.30;221.43;;;;;;;-0.96;100.00;97455.94;5009115;28;20607;-59
2024/01/19 00:24:59;;;;;;;416.13;227.73;;;;;;;-0.94;100.00;97451.78;5009891;28;20038;-58
2024/01/19 00:27:24;;;;;;;374.60;221.88;;;;;;;-0.96;100.00;97465.31;5010309;28;20501;-59
2024/01/19 00:29:50;;;;;;;504.60;229.38;;;;;;;-1.02;100.00;97473.63;5006949;28;20161;-60
2024/01/19 00:32:15;;;;;;;521.30;230.38;;;;;;;-1.03;100.00;97468.47;5010481;28;20091;-59
2024/01/19 00:34:40;;;;;;;385.95;220.45;;;;;;;-1.04;100.00;97467.59;5008277;28;20494;-58
2024/01/19 00:37:07;;;;;;;491.17;229.13;;;;;;;-1.00;100.00;97471.97;5007895;28;20041;-59
2024/01/19 00:39:32;;;;;;;445.33;224.25;;;;;;;-0.93;100.00;97471.38;5008515;28;20022;-58
2024/01/19 00:41:57;;;;;;;412.92;226.63;;;;;;;-0.99;100.00;97481.41;5006667;28;20048;-60
2024/01/19 00:44:23;;;;;;;396.83;225.95;;;;;;;-1.02;100.00;97478.72;5008528;28;20362;-58
2024/01/19 00:46:49;;;;;;;472.67;228.98;;;;;;;-0.98;100.00;97479.69;5008850;28;20040;-58
2024/01/19 00:49:15;;;;;;;506.45;228.05;;;;;;;-1.06;100.00;97485.44;5006492;28;20038;-59
2024/01/19 00:51:40;;;;;;;420.35;221.57;;;;;;;-1.08;100.00;97491.28;5007403;28;20040;-59
2024/01/19 00:54:05;;;;;;;487.63;225.13;;;;;;;-1.10;100.00;97491.25;5006037;28;20022;-58
2024/01/19 00:56:31;;;;;;;382.23;221.82;;;;;;;-1.01;100.00;97498.31;5007921;28;20121;-58
2024/01/19 00:58:56;;;;;;;412.58;224.48;;;;;;;-0.96;100.00;97506.16;5008298;28;20034;-58
2024/01/19 01:01:22;;;;;;;446.77;226.85;;;;;;;-1.02;100.00;97506.81;5004868;28;20057;-57
2024/01/19 01:03:48;;;;;;;450.10;220.35;;;;;;;-1.20;100.00;97517.22;5003760;28;20189;-58
2024/01/19 01:06:14;;;;;;;565.90;229.43;;;;;;;-1.07;100.00;97521.09;5003045;28;20441;-57
2024/01/19 01:08:39;;;;;;;449.48;225.95;;;;;;;-1.07;100.00;97521.09;5004539;28;20033;-59
2024/01/19 01:11:05;;;;;;;476.83;225.32;;;;;;;-1.28;100.00;97527.16;5003772;28;20292;-58
2024/01/19 01:13:31;;;;;;;432.00;221.38;;;;;;;-1.19;100.00;97532.59;5002529;28;20068;-58
2024/01/19 01:15:57;;;;;;;524.08;226.80;;;;;;;-1.24;100.00;97533.25;5002154;28;20040;-59
2024/01/19 01:18:22;;;;;;;442.27;223.70;;;;;;;-1.28;100.00;97539.94;5003746;28;20636;-59
2024/01/19 01:20:51;;;;;;;468.50;225.15;;;;;;;-1.25;100.00;97544.28;5002599;28;20068;-58
2024/01/19 01:23:17;;;;;;;561.30;234.05;;;;;;;-1.29;100.00;97545.84;5003245;28;20076;-58
2024/01/19 01:25:42;;;;;;;449.63;223.00;;;;;;;-1.24;100.00;97549.44;5004280;28;20034;-58
2024/01/19 01:28:08;;;;;;;516.53;217.90;;;;;;;-1.22;100.00;97555.44;5001857;28;20030;-56
2024/01/19 01:30:33;;;;;;;437.88;214.57;;;;;;;-1.36;100.00;97554.97;5002657;28;20142;-58
2024/01/19 01:32:58;;;;;;;430.63;216.98;;;;;;;-1.34;100.00;97553.34;5004609;28;20052;-57
2024/01/19 01:35:23;;;;;;;447.50;216.50;;;;;;;-1.35;100.00;97553.28;5002711;28;20544;-59
2024/01/19 01:37:49;;;;;;;522.42;220.98;;;;;;;-1.27;100.00;97561.22;5003139;28;20394;-58
2024/01/19 01:40:14;;;;;;;490.80;220.70;;;;;;;-1.34;100.00;97557.59;4998877;28;20259;-58
2024/01/19 01:42:39;;;;;;;432.60;215.88;;;;;;;-1.34;100.00;97560.97;5004825;28;20542;-58
2024/01/19 01:45:05;;;;;;;472.00;218.82;;;;;;;-1.36;100.00;97567.72;5001983;28;20021;-56
2024/01/19 01:47:31;;;;;;;431.00;218.48;;;;;;;-1.32;100.00;97571.25;5004902;28;20064;-56
2024/01/19 01:49:57;;;;;;;425.15;215.48;;;;;;;-1.32;100.00;97578.91;5003870;28;20030;-57
2024/01/19 01:52:23;;;;;;;561.10;222.65;;;;;;;-1.29;100.00;97580.69;4999363;28;20042;-57
2024/01/19 01:54:51;;;;;;;442.92;212.20;;;;;;;-1.39;100.00;97588.00;5003367;28;20292;-58
2024/01/19 01:57:20;;;;;;;514.92;222.40;;;;;;;-1.46;100.00;97594.56;5002989;28;20033;-57
2024/01/19 01:59:46;;;;;;;557.20;221.55;;;;;;;-1.39;100.00;97587.13;5002433;28;20055;-57
2024/01/19 02:02:11;;;;;;;505.52;216.32;;;;;;;-1.46;100.00;97586.91;5002736;28;20052;-58
2024/01/19 02:04:37;;;;;;;425.45;217.55;;;;;;;-1.41;100.00;97596.44;5002247;28;20026;-57
2024/01/19 02:07:02;;;;;;;472.40;217.18;;;;;;;-1.44;100.00;97600.59;5003351;28;20124;-56
2024/01/19 02:09:28;;;;;;;407.02;216.93;;;;;;;-1.50;100.00;97602.03;5001349;28;20673;-57
2024/01/19 02:11:54;;;;;;;457.77;221.70;;;;;;;-1.74;100.00;97601.16;5002469;28;20611;-57
2024/01/19 02:14:19;;;;;;;465.50;219.20;;;;;;;-1.96;100.00;97607.94;5004524;28;20330;-57
2024/01/19 02:16:45;;;;;;;435.38;215.88;;;;;;;-2.16;100.00;97611.41;5003755;28;20556;-57
2024/01/19 02:19:10;;;;;;;522.15;221.57;;;;;;;-2.31;100.00;97612.47;5003019;28;20038;-58
2024/01/19 02:21:36;;;;;;;473.33;219.93;;;;;;;-2.37;100.00;97613.09;5003532;28;20485;-57
2024/01/19 02:24:06;;;;;;;381.40;216.38;;;;;;;-2.29;100.00;97610.88;5003015;28;20476;-59
2024/01/19 02:26:34;;;;;;;428.15;218.23;;;;;;;-2.18;100.00;97613.00;5005349;28;20125;-58
2024/01/19 02:29:00;;;;;;;448.27;216.93;;;;;;;-2.07;100.00;97619.41;5007733;28;20052;-58
2024/01/19 02:31:25;;;;;;;435.73;217.07;;;;;;;-2.02;100.00;97625.56;5004425;28;20034;-58
2024/01/19 02:33:51;;;;;;;446.52;218.13;;;;;;;-1.97;100.00;97633.38;5006040;28;20018;-58
2024/01/19 02:36:16;;;;;;;563.83;225.30;;;;;;;-1.90;100.00;97639.63;5004206;28;20351;-58
2024/01/19 02:38:42;;;;;;;438.40;219.63;;;;;;;-1.87;100.00;97649.91;5006493;28;20028;-58
2024/01/19 02:41:07;;;;;;;429.55;214.70;;;;;;;-1.92;100.00;97644.66;5004885;28;20160;-58
2024/01/19 02:43:32;;;;;;;466.00;219.95;;;;;;;-1.94;100.00;97640.31;5006910;28;20053;-59
2024/01/19 02:45:58;;;;;;;454.45;219.25;;;;;;;-2.02;100.00;97647.63;5005395;28;20084;-58
2024/01/19 02:48:23;;;;;;;543.35;229.80;;;;;;;-2.10;100.00;97642.22;5005877;28;20110;-58
2024/01/19 02:50:49;;;;;;;498.63;222.95;;;;;;;-2.08;100.00;97645.69;5006320;28;20040;-58
2024/01/19 02:53:14;;;;;;;533.15;226.40;;;;;;;-2.08;100.00;97653.31;5005191;28;20013;-58
2024/01/19 02:55:40;;;;;;;438.38;222.38;;;;;;;-2.05;100.00;97652.59;5005980;28;20117;-56
2024/01/19 02:58:05;;;;;;;451.95;224.23;;;;;;;-2.09;100.00;97656.69;5007270;28;20677;-58
2024/01/19 03:00:31;;;;;;;403.88;221.05;;;;;;;-2.16;100.00;97653.00;5002970;28;20092;-58
2024/01/19 03:02:56;;;;;;;431.48;222.68;;;;;;;-2.22;100.00;97653.63;5007262;28;20037;-58
2024/01/19 03:05:21;;;;;;;563.53;229.52;;;;;;;-2.28;100.00;97658.47;5005635;28;20678;-57
2024/01/19 03:07:47;;;;;;;487.63;225.05;;;;;;;-2.31;100.00;97657.50;5005204;28;20207;-58
2024/01/19 03:10:12;;;;;;;481.92;224.60;;;;;;;-2.25;100.00;97663.72;5004114;28;20040;-57
2024/01/19 03:12:38;;;;;;;454.65;223.20;;;;;;;-2.22;100.00;97671.47;5005644;28;20348;-58
2024/01/19 03:15:04;;;;;;;400.48;217.90;;;;;;;-2.14;100.00;97666.72;5006443;28;20037;-58
2024/01/19 03:17:29;;;;;;;423.67;222.80;;;;;;;-2.03;100.00;97668.81;5006118;28;20654;-59
2024/01/19 03:19:55;;;;;;;563.17;221.40;;;;;;;-2.08;100.00;97671.16;5004700;28;20045;-59
2024/01/19 03:22:20;;;;;;;520.13;229.80;;;;;;;-2.01;100.00;97678.25;5004916;28;20050;-58
2024/01/19 03:24:45;;;;;;;436.80;223.73;;;;;;;-1.94;100.00;97689.59;5004716;28;20029;-59
2024/01/19 03:27:11;;;;;;;520.67;229.15;;;;;;;-1.99;100.00;97691.97;5003422;28;20136;-57
2024/01/19 03:29:36;;;;;;;398.20;222.13;;;;;;;-1.92;100.00;97688.00;5007509;28;20029;-59
2024/01/19 03:32:01;;;;;;;418.15;225.50;;;;;;;-1.96;100.00;97694.63;5007335;28;20881;-59
2024/01/19 03:34:27;;;;;;;576.38;229.25;;;;;;;-1.88;100.00;97694.94;5005127;28;20026;-58
2024/01/19 03:36:52;;;;;;;450.25;222.18;;;;;;;-1.89;100.00;97693.19;5003864;28;20030;-57
2024/01/19 03:39:18;;;;;;;570.35;232.02;;;;;;;-1.86;100.00;97693.31;5005371;28;20014;-58
2024/01/19 03:41:44;;;;;;;473.58;223.90;;;;;;;-1.73;100.00;97696.38;5005648;28;20064;-58
2024/01/19 03:44:09;;;;;;;433.77;224.60;;;;;;;-1.71;100.00;97702.38;5005881;28;20048;-59
2024/01/19 03:46:34;;;;;;;417.48;224.07;;;;;;;-1.65;100.00;97702.66;5003750;28;20045;-58
2024/01/19 03:49:00;;;;;;;466.15;226.55;;;;;;;-1.58;100.00;97703.78;5007021;28;20065;-59
2024/01/19 03:51:25;;;;;;;535.45;227.68;;;;;;;-1.56;100.00;97699.59;5005618;28;20305;-57
2024/01/19 03:53:50;;;;;;;432.08;223.70;;;;;;;-1.48;100.00;97690.56;5006191;28;20334;-57
2024/01/19 03:56:16;;;;;;;508.20;229.63;;;;;;;-1.41;100.00;97695.94;5003164;28;20270;-57
2024/01/19 03:58:41;;;;;;;428.90;226.00;;;;;;;-1.66;100.00;97692.41;5006438;28;20040;-57
2024/01/19 04:01:07;;;;;;;423.98;225.27;;;;;;;-1.59;100.00;97696.94;5004272;28;20915;-57
2024/01/19 04:03:33;;;;;;;444.48;220.90;;;;;;;-1.62;100.00;97699.34;5003635;28;20076;-59
2024/01/19 04:05:59;;;;;;;467.15;227.50;;;;;;;-1.47;100.00;97711.84;5004695;28;20277;-58
2024/01/19 04:08:26;;;;;;;543.28;231.93;;;;;;;-1.35;100.00;97714.91;5003433;28;20119;-59
2024/01/19 04:10:51;;;;;;;465.10;225.07;;;;;;;-1.38;100.00;97727.53;5003231;28;20037;-59
2024/01/19 04:13:17;;;;;;;531.10;230.48;;;;;;;-1.34;100.00;97723.44;5002014;28;20437;-57
2024/01/19 04:15:42;;;;;;;441.42;222.70;;;;;;;-1.21;100.00;97724.78;5004901;28;20133;-59
2024/01/19 04:18:07;;;;;;;440.83;222.15;;;;;;;-1.29;100.00;97721.03;5004550;28;20608;-57
2024/01/19 04:20:32;;;;;;;410.73;225.68;;;;;;;-1.19;100.00;97728.25;5002565;28;20102;-59
2024/01/19 04:22:58;;;;;;;440.27;227.13;;;;;;;-1.23;100.00;97731.50;5005193;28;20068;-58
2024/01/19 04:25:23;;;;;;;574.67;231.73;;;;;;;-1.16;100.00;97733.47;5002117;28;20527;-59
2024/01/19 04:27:49;;;;;;;491.50;223.95;;;;;;;-1.17;100.00;97734.28;5003896;28;20045;-59
2024/01/19 04:30:14;;;;;;;478.60;229.52;;;;;;;-1.03;100.00;97737.38;5004345;28;20051;-59
2024/01/19 04:32:40;;;;;;;476.63;232.48;;;;;;;-1.07;100.00;97738.94;5004193;28;20713;-57
2024/01/19 04:35:05;;;;;;;430.70;226.75;;;;;;;-1.13;100.00;97742.94;5005990;28;20013;-58
2024/01/19 04:37:30;;;;;;;512.63;232.25;;;;;;;-1.02;100.00;97741.66;5002377;28;20041;-58
2024/01/19 04:39:56;;;;;;;489.08;233.93;;;;;;;-1.09;100.00;97740.56;5003669;28;20571;-58
2024/01/19 04:42:21;;;;;;;532.83;229.80;;;;;;;-1.11;100.00;97747.28;5003779;28;20210;-58
2024/01/19 04:44:46;;;;;;;447.58;225.80;;;;;;;-1.11;100.00;97747.28;5005318;28;20417;-59
2024/01/19 04:47:12;;;;;;;467.25;232.88;;;;;;;-1.06;100.00;97750.03;5002631;28;20025;-58
2024/01/19 04:49:37;;;;;;;434.65;230.80;;;;;;;-0.98;100.00;97751.19;5000499;28;20052;-58
2024/01/19 04:52:03;;;;;;;437.63;224.77;;;;;;;-1.09;100.00;97762.66;5004816;28;20025;-57
2024/01/19 04:54:28;;;;;;;572.88;238.30;;;;;;;-1.01;100.00;97757.88;5006112;28;20056;-58
2024/01/19 04:56:53;;;;;;;456.40;234.48;;;;;;;-1.01;100.00;97766.38;5003778;28;20044;-58
2024/01/19 04:59:19;;;;;;;562.47;239.63;;;;;;;-0.87;100.00;97766.94;5003280;28;20018;-57
2024/01/19 05:01:44;;;;;;;481.05;231.70;;;;;;;-1.03;100.00;97757.81;5004367;28;20040;-58
2024/01/19 05:04:09;;;;;;;453.52;228.10;;;;;;;-1.00;100.00;97762.16;5004618;28;20446;-60
2024/01/19 05:06:35;;;;;;;437.75;234.10;;;;;;;-1.02;100.00;97768.88;5006013;28;20034;-58
2024/01/19 05:09:00;;;;;;;433.85;226.52;;;;;;;-1.05;100.00;97769.63;5002747;28;20116;-60
2024/01/19 05:11:25;;;;;;;567.38;235.48;;;;;;;-1.06;100.00;97776.44;5001712;28;20055;-57
2024/01/19 05:13:51;;;;;;;467.75;237.85;;;;;;;-1.01;100.00;97774.03;5003498;28;20061;-58
2024/01/19 05:16:16;;;;;;;444.35;234.07;;;;;;;-0.97;100.00;97770.81;5002569;28;20038;-58
2024/01/19 05:18:42;;;;;;;452.48;231.60;;;;;;;-0.88;100.00;97779.63;5003628;28;20026;-57
2024/01/19 05:21:07;;;;;;;438.98;234.48;;;;;;;-1.03;100.00;97778.22;5004342;28;20087;-56
2024/01/19 05:23:33;;;;;;;562.13;234.95;;;;;;;-0.94;100.00;97778.59;5001849;28;20048;-59
2024/01/19 05:25:58;;;;;;;441.85;227.45;;;;;;;-1.15;100.00;97781.16;5002671;28;20448;-58
2024/01/19 05:28:24;;;;;;;539.42;239.57;;;;;;;-0.99;100.00;97781.75;5004150;28;20032;-58
2024/01/19 05:30:49;;;;;;;474.35;235.93;;;;;;;-0.89;100.00;97795.78;5003681;28;20033;-58
2024/01/19 05:33:15;;;;;;;473.15;234.23;;;;;;;-0.95;100.00;97793.84;5004623;28;20606;-58
2024/01/19 05:35:40;;;;;;;451.60;234.52;;;;;;;-0.99;100.00;97808.19;5002139;28;20153;-58
2024/01/19 05:38:05;;;;;;;433.38;232.23;;;;;;;-0.81;100.00;97802.03;5003910;28;20060;-59
2024/01/19 05:40:31;;;;;;;567.13;241.93;;;;;;;-0.67;100.00;97800.88;5002149;28;20144;-59
2024/01/19 05:42:56;;;;;;;457.77;235.23;;;;;;;-0.81;100.00;97802.91;5003587;28;20065;-57
2024/01/19 05:45:21;;;;;;;497.70;232.25;;;;;;;-0.72;100.00;97812.63;5003519;28;20418;-58
2024/01/19 05:47:47;;;;;;;551.47;235.55;;;;;;;-0.58;100.00;97817.38;5003100;28;20685;-59
2024/01/19 05:50:12;;;;;;;429.58;234.77;;;;;;;-0.74;100.00;97818.47;5002316;28;20021;-58
2024/01/19 05:52:38;;;;;;;446.60;231.85;;;;;;;-0.57;100.00;97825.09;5004089;28;20482;-59
2024/01/19 05:55:04;;;;;;;461.95;232.07;;;;;;;-0.76;100.00;97828.63;5003865;28;20348;-57
2024/01/19 05:57:30;;;;;;;522.13;234.80;;;;;;;-0.60;100.00;97826.69;5002230;28;20453;-58
2024/01/19 05:59:55;;;;;;;472.95;232.55;;;;;;;-0.47;100.00;97833.13;5003256;28;20032;-58
2024/01/19 06:02:21;;;;;;;511.92;235.65;;;;;;;-0.37;100.00;97834.34;5006197;28;20037;-56
2024/01/19 06:04:46;;;;;;;456.33;234.68;;;;;;;-0.34;100.00;97849.78;5007723;28;20620;-58
2024/01/19 06:07:12;;;;;;;433.90;225.88;;;;;;;-0.36;100.00;97861.63;5006989;28;20025;-56
2024/01/19 06:09:38;;;;;;;584.33;236.18;;;;;;;-0.46;100.00;97857.84;5004241;28;20061;-58
2024/01/19 06:12:04;;;;;;;425.27;236.52;;;;;;;-0.56;100.00;97851.53;5007367;28;20121;-57
2024/01/19 06:14:30;;;;;;;490.20;231.50;;;;;;;-0.25;100.00;97865.47;5006170;28;20051;-58
2024/01/19 06:16:55;;;;;;;509.40;231.52;;;;;;;-0.35;100.00;97863.38;5004867;28;20455;-56
2024/01/19 06:19:21;;;;;;;472.73;227.13;;;;;;;-0.22;100.00;97878.34;5004924;28;20033;-55
2024/01/19 06:21:46;;;;;;;498.33;236.00;;;;;;;-0.29;100.00;97876.41;5005095;28;20631;-58
2024/01/19 06:24:15;;;;;;;516.65;236.40;;;;;;;-0.28;100.00;97886.69;5007451;28;20083;-56
2024/01/19 06:26:48;;;;;;;451.58;221.90;;;;;;;-0.25;100.00;97888.47;5004782;28;20444;-56
2024/01/19 06:29:14;;;;;;;495.60;228.30;;;;;;;-0.24;100.00;97890.22;5006924;28;20041;-56
2024/01/19 06:31:46;;;;;;;497.63;222.35;;;;;;;-0.24;100.00;97897.00;5005212;28;20048;-56
2024/01/19 06:34:13;;;;;;;449.52;227.98;;;;;;;-0.57;100.00;97904.31;5011664;28;20041;-57
2024/01/19 06:36:38;;;;;;;590.55;240.70;;;;;;;-0.30;100.00;97902.78;5005301;28;20523;-58
2024/01/19 06:39:04;;;;;;;452.95;228.43;;;;;;;-0.58;100.00;97907.69;5007147;28;20021;-55
2024/01/19 06:41:30;;;;;;;526.58;233.77;;;;;;;-0.18;100.00;97913.44;5005620;28;20025;-56
2024/01/19 06:43:56;;;;;;;501.40;227.18;;;;;;;-0.39;100.00;97918.63;5005456;28;20044;-57
2024/01/19 06:46:21;;;;;;;447.17;227.60;;;;;;;-0.42;100.00;97921.03;5007059;28;20045;-57
2024/01/19 06:48:47;;;;;;;476.02;232.80;;;;;;;-0.34;100.00;97929.88;5004826;28;20029;-56
2024/01/19 06:51:16;;;;;;;473.75;240.18;;;;;;;-0.35;100.00;97935.81;5003314;28;20037;-58
2024/01/19 06:53:41;;;;;;;465.80;233.35;;;;;;;-0.22;100.00;97934.59;5005988;28;20034;-58
2024/01/19 06:56:06;;;;;;;451.95;233.15;;;;;;;-0.40;100.00;97937.31;5006779;28;20048;-57
2024/01/19 06:58:32;;;;;;;572.53;240.60;;;;;;;0.19;100.00;97944.63;5006900;28;20037;-57
2024/01/19 07:00:57;;;;;;;424.20;232.90;;;;;;;-0.12;100.00;97940.94;5006017;28;20038;-57
2024/01/19 07:03:23;;;;;;;471.38;235.20;;;;;;;-0.15;100.00;97939.13;5006552;28;20025;-56
2024/01/19 07:05:48;;;;;;;511.35;234.82;;;;;;;-0.10;100.00;97956.34;5004688;28;20034;-57
2024/01/19 07:08:13;;;;;;;446.48;235.18;;;;;;;-0.17;100.00;97955.22;5008436;28;20100;-57
2024/01/19 07:10:39;;;;;;;573.95;242.75;;;;;;;-0.32;100.00;97955.50;5003422;28;20053;-56
2024/01/19 07:13:04;;;;;;;452.80;230.52;;;;;;;-0.50;100.00;97961.63;5006323;28;20022;-57
2024/01/19 07:15:30;;;;;;;506.85;234.00;;;;;;;-0.59;100.00;97976.59;5004314;28;20508;-58
2024/01/19 07:17:55;;;;;;;504.45;236.00;;;;;;;-0.76;100.00;97971.66;5005080;28;20067;-57
2024/01/19 07:20:20;;;;;;;460.02;234.43;;;;;;;-1.00;100.00;97979.16;5005097;28;20575;-57
2024/01/19 07:22:45;;;;;;;453.33;232.68;;;;;;;-0.96;100.00;97981.91;5004949;28;20032;-58
2024/01/19 07:25:11;;;;;;;462.75;237.77;;;;;;;-0.95;100.00;97988.78;5009545;28;20754;-58
2024/01/19 07:27:36;;;;;;;588.33;244.48;;;;;;;-0.96;100.00;97996.38;5001832;28;20029;-58
2024/01/19 07:30:02;;;;;;;439.65;235.43;;;;;;;-0.93;100.00;98002.47;5004666;28;20137;-58
2024/01/19 07:32:28;;;;;;;525.20;243.00;;;;;;;-0.79;100.00;98007.28;5004049;28;20079;-58
2024/01/19 07:34:53;;;;;;;477.95;232.43;;;;;;;-0.83;100.00;98007.97;5006466;28;20029;-58
2024/01/19 07:37:19;;;;;;;446.38;231.57;;;;;;;-0.73;100.00;98006.66;5004635;28;20072;-56
2024/01/19 07:39:44;;;;;;;577.85;249.23;;;;;;;-0.66;100.00;98018.91;5005578;28;20064;-58
2024/01/19 07:42:09;;;;;;;457.90;234.88;;;;;;;-0.73;100.00;98016.88;5005961;28;20521;-58
2024/01/19 07:44:35;;;;;;;562.50;246.07;;;;;;;-0.62;100.00;98028.44;5005189;28;20521;-57
2024/01/19 07:47:00;;;;;;;450.67;235.52;;;;;;;-0.72;100.00;98027.19;5005638;28;20422;-57
2024/01/19 07:49:25;;;;;;;454.55;234.70;;;;;;;-0.68;100.00;98038.38;5004321;28;20163;-57
2024/01/19 07:51:51;;;;;;;428.90;229.68;;;;;;;-0.67;100.00;98042.72;5006755;28;20037;-59
2024/01/19 07:54:17;;;;;;;458.80;234.43;;;;;;;-0.62;100.00;98035.22;5005101;28;20033;-57
2024/01/19 07:56:43;;;;;;;558.33;230.98;;;;;;;-0.75;100.00;98050.03;5003173;28;20518;-58
2024/01/19 07:59:09;;;;;;;434.85;226.23;;;;;;;-0.70;100.00;98063.00;5004533;28;20458;-57
2024/01/19 08:01:34;;;;;;;539.53;240.15;;;;;;;-0.65;100.00;98064.06;5002684;28;20520;-56
2024/01/19 08:04:00;;;;;;;482.90;234.95;;;;;;;-0.50;100.00;98066.41;5005130;28;20400;-58
2024/01/19 08:06:25;;;;;;;438.13;225.35;;;;;;;-0.40;100.00;98071.06;5005010;28;20042;-57
2024/01/19 08:08:50;;;;;;;471.30;231.70;;;;;;;-0.44;100.00;98074.31;5001769;28;20032;-57
2024/01/19 08:11:16;;;;;;;455.88;232.07;;;;;;;-0.02;100.00;98077.69;5004238;28;20029;-57
2024/01/19 08:13:41;;;;;;;587.47;237.90;;;;;;;-0.08;100.00;98087.69;5003685;28;20238;-58
2024/01/19 08:16:07;;;;;;;451.25;232.48;;;;;;;0.33;100.00;98093.56;5005234;28;20033;-57
2024/01/19 08:18:34;;;;;;;592.78;248.30;;;;;;;0.11;100.00;98097.81;5004239;28;20067;-57
2024/01/19 08:21:01;;;;;;;453.50;231.57;;;;;;;-0.01;100.00;98099.88;5005201;28;20048;-57
2024/01/19 08:23:27;;;;;;;449.25;232.25;;;;;;;0.13;100.00;98097.91;5004358;28;20022;-56
2024/01/19 08:25:52;;;;;;;505.73;238.63;;;;;;;0.18;100.00;98105.75;5003582;28;20112;-57
2024/01/19 08:28:17;;;;;;;476.83;233.40;;;;;;;0.17;100.00;98102.31;5008609;28;20064;-57
2024/01/19 08:30:43;;;;;;;547.25;237.55;;;;;;;0.10;100.00;98115.66;5002083;28;20146;-57
2024/01/19 08:33:08;;;;;;;472.65;232.00;;;;;;;0.08;100.00;98115.59;5003193;28;20030;-57
2024/01/19 08:35:34;;;;;;;555.72;241.27;;;;;;;0.14;100.00;98114.97;5003429;28;20238;-58
2024/01/19 08:37:59;;;;;;;448.25;231.40;;;;;;;0.22;100.00;98117.88;5004666;28;20029;-56
2024/01/19 08:40:24;;;;;;;467.38;233.60;;;;;;;0.15;100.00;98120.97;5001318;28;20037;-57
2024/01/19 08:42:50;;;;;;;483.77;234.65;;;;;;;0.04;100.00;98112.88;5004592;28;20465;-56
2024/01/19 08:45:15;;;;;;;466.58;228.57;;;;;;;-0.02;100.00;98118.63;5005610;28;20068;-55
2024/01/19 08:47:41;;;;;;;615.45;244.95;;;;;;;0.04;100.00;98123.97;5003991;28;20238;-58
2024/01/19 08:50:06;;;;;;;450.65;231.85;;;;;;;-0.01;100.00;98128.91;5006416;28;20082;-57
2024/01/19 08:52:32;;;;;;;497.45;238.00;;;;;;;0.15;100.00;98134.63;5002089;28;20025;-57
2024/01/19 08:54:58;;;;;;;488.63;241.65;;;;;;;0.15;100.00;98136.31;5004375;28;20741;-58
2024/01/19 08:57:24;;;;;;;484.80;239.32;;;;;;;0.21;100.00;98139.13;5003630;28;20045;-58
2024/01/19 08:59:50;;;;;;;546.20;242.07;;;;;;;0.19;100.00;98140.75;5002457;28;20125;-57
2024/01/19 09:02:15;;;;;;;450.13;235.57;;;;;;;0.12;100.00;98143.06;4998098;28;20075;-58
2024/01/19 09:04:40;;;;;;;564.22;249.23;;;;;;;-0.04;100.00;98140.69;5003611;28;20041;-58
2024/01/19 09:07:06;;;;;;;397.63;241.27;;;;;;;0.04;100.00;98141.00;5008701;28;20061;-58
2024/01/19 09:09:31;;;;;;;466.23;238.60;;;;;;;0.11;100.00;98156.66;5007236;28;20022;-58
2024/01/19 09:11:57;;;;;;;423.15;229.90;;;;;;;0.09;100.00;98155.75;5005698;28;20172;-57
2024/01/19 09:14:28;;;;;;;425.13;235.48;;;;;;;0.34;100.00;98159.28;5008505;28;20424;-58
2024/01/19 09:16:53;;;;;;;451.23;229.75;;;;;;;0.56;100.00;98165.22;5006747;28;20038;-57
2024/01/19 09:19:19;;;;;;;438.70;234.90;;;;;;;0.70;100.00;98176.03;5008365;28;20021;-57
2024/01/19 09:21:44;;;;;;;570.17;243.52;;;;;;;0.96;100.00;98177.88;5004680;28;20037;-56
2024/01/19 09:24:11;;;;;;;453.00;240.15;;;;;;;1.13;100.00;98181.94;5008273;28;20690;-59
2024/01/19 09:26:36;;;;;;;456.95;228.98;;;;;;;0.67;100.00;98185.28;5005885;28;20042;-57
2024/01/19 09:29:02;;;;;;;409.15;238.30;;;;;;;0.80;100.00;98190.06;5009129;28;20037;-58
2024/01/19 09:31:27;;;;;;;441.85;238.15;;;;;;;0.57;100.00;98202.84;5005709;28;20294;-59
2024/01/19 09:33:52;;;;;;;463.00;243.15;;;;;;;1.29;100.00;98215.78;5006155;28;20117;-59
2024/01/19 09:36:18;;;;;;;438.23;242.27;;;;;;;1.16;100.00;98222.16;5011175;28;20061;-58
2024/01/19 09:38:43;;;;;;;528.35;238.35;;;;;;;1.27;100.00;98222.56;5008460;28;20061;-58
2024/01/19 09:41:27;;;;;;;399.48;228.48;;;;;;;1.00;100.00;98229.25;5010193;28;20037;-59
2024/01/19 09:43:57;;;;;;;456.67;233.85;;;;;;;1.07;100.00;98244.88;5010095;28;20026;-57
2024/01/19 09:46:28;;;;;;;418.13;232.65;;;;;;;1.24;100.00;98255.75;5011688;28;20425;-58
2024/01/19 09:49:31;;;;;;;443.92;231.35;;;;;;;1.00;100.00;98254.88;5010116;28;20036;-57
2024/01/19 09:52:02;;;;;;;432.38;226.20;;;;;;;1.12;100.00;98258.72;5008742;28;20037;-59
2024/01/19 09:54:32;;;;;;;452.83;231.65;;;;;;;0.88;100.00;98249.25;5011796;28;20028;-57
2024/01/19 09:57:00;;;;;;;429.75;230.10;;;;;;;1.03;100.00;98262.69;5011944;28;20536;-59
2024/01/19 09:59:28;;;;;;;419.23;230.95;;;;;;;1.16;100.00;98266.56;5010887;28;20021;-58
2024/01/19 10:01:55;;;;;;;500.17;261.67;;;;;;;0.27;100.00;98264.75;5007362;28;20033;-56
2024/01/19 10:04:21;;;;;;;482.90;264.13;;;;;;;-0.58;100.00;98262.81;5010503;28;20325;-58
2024/01/19 10:06:47;;;;;;;639.03;283.70;;;;;;;-0.70;100.00;98259.72;5007881;28;20040;-59
2024/01/19 10:09:12;;;;;;;450.17;278.83;;;;;;;-0.80;100.00;98272.06;5012949;28;20030;-57
2024/01/19 10:11:40;;;;;;;578.78;289.05;;;;;;;-0.73;100.00;98269.78;5008080;28;20050;-57
2024/01/19 10:14:06;;;;;;;470.23;340.50;;;;;;;-0.87;100.00;98280.22;5011791;28;20029;-59
2024/01/19 10:16:33;;;;;;;417.73;278.02;;;;;;;-0.70;100.00;98283.56;5009579;28;20071;-57
2024/01/19 10:19:02;;;;;;;447.83;266.05;;;;;;;-0.64;100.00;98282.97;5011306;28;20218;-58
2024/01/19 10:21:28;;;;;;;469.42;260.85;;;;;;;-0.28;100.00;98282.91;5009701;28;20547;-57
2024/01/19 10:24:14;;;;;;;448.95;278.98;;;;;;;-0.37;100.00;98286.72;5013134;28;22332;-59
2024/01/19 10:26:40;;;;;;;574.63;240.52;;;;;;;-0.33;100.00;98286.03;5007132;28;20037;-59
2024/01/19 10:29:13;;;;;;;390.67;232.57;;;;;;;-0.35;100.00;98290.19;5009979;28;20022;-60
2024/01/19 10:31:41;;;;;;;450.52;192.43;;;;;;;0.14;100.00;98293.19;5007957;28;20087;-60
2024/01/19 10:34:16;;;;;;;361.90;184.68;;;;;;;0.44;100.00;98302.97;5011361;28;20052;-59
2024/01/19 10:36:42;;;;;;;484.40;192.10;;;;;;;0.45;100.00;98304.72;5010928;28;20029;-59
2024/01/19 10:39:25;;;;;;;382.88;183.88;;;;;;;0.80;100.00;98309.53;5009398;28;20570;-58
2024/01/19 10:42:02;;;;;;;490.15;192.10;;;;;;;1.06;100.00;98313.16;5007220;28;20045;-58
2024/01/19 10:44:28;;;;;;;393.85;186.20;;;;;;;0.81;100.00;98312.16;5013440;28;20043;-59
2024/01/19 10:46:56;;;;;;;496.83;195.60;;;;;;;0.67;100.00;98308.16;5008218;28;20036;-60
2024/01/19 10:49:21;;;;;;;347.25;187.70;;;;;;;0.86;100.00;98308.09;5009134;28;20037;-59